This is the latest recevied weather packets stored in our database for station/object SP2TMT-10. If no packets are shown the sender has not sent any weather packets the latest 10 day(s).
| Time | Temp. | Humidity | Pressure | Rain* | Wind** | Luminosity | Snow |
|---|---|---|---|---|---|---|---|
| 1777931047 | 23.33° C | 41% | 1011.5 hPa | - | - | - | - |
| 1777930146 | 23.33° C | 40% | 1011.5 hPa | - | - | - | - |
| 1777929246 | 23.33° C | 40% | 1011.5 hPa | - | - | - | - |
| 1777928346 | 23.33° C | 39% | 1011.5 hPa | - | - | - | - |
| 1777927446 | 23.33° C | 39% | 1011.5 hPa | - | - | - | - |
| 1777926546 | 23.33° C | 39% | 1011.4 hPa | - | - | - | - |
| 1777925646 | 23.89° C | 39% | 1011.2 hPa | - | - | - | - |
| 1777924746 | 23.89° C | 39% | 1011.2 hPa | - | - | - | - |
| 1777923846 | 23.89° C | 39% | 1011.3 hPa | - | - | - | - |
| 1777922946 | 23.89° C | 38% | 1011.2 hPa | - | - | - | - |
| 1777922046 | 23.89° C | 38% | 1011.1 hPa | - | - | - | - |
| 1777921140 | 23.89° C | 38% | 1011.1 hPa | - | - | - | - |
| 1777920240 | 23.89° C | 38% | 1011.1 hPa | - | - | - | - |
| 1777919340 | 23.89° C | 37% | 1011 hPa | - | - | - | - |
| 1777918440 | 24.44° C | 37% | 1011 hPa | - | - | - | - |
| 1777917540 | 24.44° C | 37% | 1010.8 hPa | - | - | - | - |
| 1777916640 | 25° C | 37% | 1010.9 hPa | - | - | - | - |
| 1777915740 | 25° C | 36% | 1010.8 hPa | - | - | - | - |
| 1777914839 | 26.11° C | 40% | 1010.8 hPa | - | - | - | - |
| 1777913939 | 26.67° C | 45% | 1010.9 hPa | - | - | - | - |
| 1777913039 | 25° C | 41% | 1010.8 hPa | - | - | - | - |
| 1777912139 | 25.56° C | 43% | 1010.7 hPa | - | - | - | - |
| 1777911239 | 26.67° C | 49% | 1010.7 hPa | - | - | - | - |
| 1777910339 | 25.56° C | 53% | 1010.6 hPa | - | - | - | - |
| 1777909439 | 25° C | 55% | 1010.7 hPa | - | - | - | - |
* Rain since midnight (hover to see other rain measurements)
** Current wind speed in m/s (hover to see current wind gust speed)